sensor_id;sensor_type;location;lat;lon;timestamp;temperature;humidity
20319;DHT22;10317;47.254;11.314;2023-04-08T00:01:01;6.00;99.90
20319;DHT22;10317;47.254;11.314;2023-04-08T00:03:27;6.00;99.90
20319;DHT22;10317;47.254;11.314;2023-04-08T00:05:53;6.00;99.90
20319;DHT22;10317;47.254;11.314;2023-04-08T00:08:18;6.00;99.90
20319;DHT22;10317;47.254;11.314;2023-04-08T00:10:44;6.00;99.90
20319;DHT22;10317;47.254;11.314;2023-04-08T00:13:10;6.10;99.90
20319;DHT22;10317;47.254;11.314;2023-04-08T00:15:36;6.10;99.90
20319;DHT22;10317;47.254;11.314;2023-04-08T00:18:02;6.10;99.90
20319;DHT22;10317;47.254;11.314;2023-04-08T00:20:28;6.10;99.90
20319;DHT22;10317;47.254;11.314;2023-04-08T00:22:53;6.10;99.90
20319;DHT22;10317;47.254;11.314;2023-04-08T00:25:19;6.10;99.90
20319;DHT22;10317;47.254;11.314;2023-04-08T00:27:45;6.10;99.90
20319;DHT22;10317;47.254;11.314;2023-04-08T00:30:10;6.10;99.90
20319;DHT22;10317;47.254;11.314;2023-04-08T00:32:36;6.10;99.90
20319;DHT22;10317;47.254;11.314;2023-04-08T00:35:02;6.10;99.90
20319;DHT22;10317;47.254;11.314;2023-04-08T00:37:28;6.00;99.90
20319;DHT22;10317;47.254;11.314;2023-04-08T00:39:55;6.10;99.90
20319;DHT22;10317;47.254;11.314;2023-04-08T00:42:21;6.00;99.90
20319;DHT22;10317;47.254;11.314;2023-04-08T00:44:47;6.00;99.90
20319;DHT22;10317;47.254;11.314;2023-04-08T00:47:13;6.00;99.90
20319;DHT22;10317;47.254;11.314;2023-04-08T00:49:40;6.00;99.90
20319;DHT22;10317;47.254;11.314;2023-04-08T00:52:06;6.10;99.90
20319;DHT22;10317;47.254;11.314;2023-04-08T00:54:31;6.00;99.90
20319;DHT22;10317;47.254;11.314;2023-04-08T00:56:57;6.00;99.90
20319;DHT22;10317;47.254;11.314;2023-04-08T00:59:27;6.00;99.90
20319;DHT22;10317;47.254;11.314;2023-04-08T01:09:49;5.90;99.90
20319;DHT22;10317;47.254;11.314;2023-04-08T01:12:25;5.90;99.90
20319;DHT22;10317;47.254;11.314;2023-04-08T01:14:58;5.90;99.90
20319;DHT22;10317;47.254;11.314;2023-04-08T01:17:25;5.70;99.90
20319;DHT22;10317;47.254;11.314;2023-04-08T01:19:52;5.70;99.90
20319;DHT22;10317;47.254;11.314;2023-04-08T01:22:31;5.70;99.90
20319;DHT22;10317;47.254;11.314;2023-04-08T01:25:05;5.70;99.90
20319;DHT22;10317;47.254;11.314;2023-04-08T01:27:34;5.70;99.90
20319;DHT22;10317;47.254;11.314;2023-04-08T01:30:02;5.80;99.90
20319;DHT22;10317;47.254;11.314;2023-04-08T01:32:29;5.80;99.90
20319;DHT22;10317;47.254;11.314;2023-04-08T01:34:57;5.80;99.90
20319;DHT22;10317;47.254;11.314;2023-04-08T01:37:24;5.80;99.90
20319;DHT22;10317;47.254;11.314;2023-04-08T01:39:51;5.80;99.90
20319;DHT22;10317;47.254;11.314;2023-04-08T01:42:18;5.80;99.90
20319;DHT22;10317;47.254;11.314;2023-04-08T01:44:45;5.80;99.90
20319;DHT22;10317;47.254;11.314;2023-04-08T01:47:12;5.80;99.90
20319;DHT22;10317;47.254;11.314;2023-04-08T01:49:38;5.80;99.90
20319;DHT22;10317;47.254;11.314;2023-04-08T01:52:05;5.80;99.90
20319;DHT22;10317;47.254;11.314;2023-04-08T01:54:33;5.80;99.90
20319;DHT22;10317;47.254;11.314;2023-04-08T01:57:01;5.80;99.90
20319;DHT22;10317;47.254;11.314;2023-04-08T01:59:30;5.80;99.90
20319;DHT22;10317;47.254;11.314;2023-04-08T02:01:59;5.70;99.90
20319;DHT22;10317;47.254;11.314;2023-04-08T02:04:26;5.70;99.90
20319;DHT22;10317;47.254;11.314;2023-04-08T02:06:52;5.70;99.90
20319;DHT22;10317;47.254;11.314;2023-04-08T02:09:18;5.70;99.90
20319;DHT22;10317;47.254;11.314;2023-04-08T02:11:43;5.80;99.90
20319;DHT22;10317;47.254;11.314;2023-04-08T02:14:09;5.80;99.90
20319;DHT22;10317;47.254;11.314;2023-04-08T02:16:49;5.80;99.90
20319;DHT22;10317;47.254;11.314;2023-04-08T02:19:28;5.80;99.90
20319;DHT22;10317;47.254;11.314;2023-04-08T02:22:03;5.90;99.90
20319;DHT22;10317;47.254;11.314;2023-04-08T02:24:31;5.80;99.90
20319;DHT22;10317;47.254;11.314;2023-04-08T02:26:59;5.80;99.90
20319;DHT22;10317;47.254;11.314;2023-04-08T02:29:28;5.80;99.90
20319;DHT22;10317;47.254;11.314;2023-04-08T02:31:54;5.80;99.90
20319;DHT22;10317;47.254;11.314;2023-04-08T02:34:21;5.80;99.90
20319;DHT22;10317;47.254;11.314;2023-04-08T02:36:47;5.70;99.90
20319;DHT22;10317;47.254;11.314;2023-04-08T02:39:15;5.80;99.90
20319;DHT22;10317;47.254;11.314;2023-04-08T02:41:41;5.80;99.90
20319;DHT22;10317;47.254;11.314;2023-04-08T02:44:08;5.80;99.90
20319;DHT22;10317;47.254;11.314;2023-04-08T02:46:34;5.80;99.90
20319;DHT22;10317;47.254;11.314;2023-04-08T02:49:00;5.80;99.90
20319;DHT22;10317;47.254;11.314;2023-04-08T02:51:25;5.80;99.90
20319;DHT22;10317;47.254;11.314;2023-04-08T02:53:52;5.80;99.90
20319;DHT22;10317;47.254;11.314;2023-04-08T02:56:18;5.80;99.90
20319;DHT22;10317;47.254;11.314;2023-04-08T02:58:44;5.80;99.90
20319;DHT22;10317;47.254;11.314;2023-04-08T03:01:10;5.70;99.90
20319;DHT22;10317;47.254;11.314;2023-04-08T03:03:36;5.70;99.90
20319;DHT22;10317;47.254;11.314;2023-04-08T03:06:01;5.60;99.90
20319;DHT22;10317;47.254;11.314;2023-04-08T03:08:27;5.60;99.90
20319;DHT22;10317;47.254;11.314;2023-04-08T03:10:53;5.50;99.90
20319;DHT22;10317;47.254;11.314;2023-04-08T03:13:18;5.50;99.90
20319;DHT22;10317;47.254;11.314;2023-04-08T03:15:44;5.50;99.90
20319;DHT22;10317;47.254;11.314;2023-04-08T03:18:10;5.50;99.90
20319;DHT22;10317;47.254;11.314;2023-04-08T03:20:36;5.60;99.90
20319;DHT22;10317;47.254;11.314;2023-04-08T03:23:01;5.60;99.90
20319;DHT22;10317;47.254;11.314;2023-04-08T03:25:27;5.60;99.90
20319;DHT22;10317;47.254;11.314;2023-04-08T03:27:54;5.60;99.90
20319;DHT22;10317;47.254;11.314;2023-04-08T03:30:19;5.60;99.90
20319;DHT22;10317;47.254;11.314;2023-04-08T03:32:45;5.70;99.90
20319;DHT22;10317;47.254;11.314;2023-04-08T03:35:11;5.70;99.90
20319;DHT22;10317;47.254;11.314;2023-04-08T03:37:37;5.60;99.90
20319;DHT22;10317;47.254;11.314;2023-04-08T03:40:03;5.60;99.90
20319;DHT22;10317;47.254;11.314;2023-04-08T03:42:29;5.60;99.90
20319;DHT22;10317;47.254;11.314;2023-04-08T03:44:54;5.50;99.90
20319;DHT22;10317;47.254;11.314;2023-04-08T03:47:20;5.50;99.90
20319;DHT22;10317;47.254;11.314;2023-04-08T03:49:46;5.50;99.90
20319;DHT22;10317;47.254;11.314;2023-04-08T03:52:11;5.50;99.90
20319;DHT22;10317;47.254;11.314;2023-04-08T03:54:37;5.40;99.90
20319;DHT22;10317;47.254;11.314;2023-04-08T03:57:03;5.40;99.90
20319;DHT22;10317;47.254;11.314;2023-04-08T03:59:28;5.30;99.90
20319;DHT22;10317;47.254;11.314;2023-04-08T04:01:54;5.20;99.90
20319;DHT22;10317;47.254;11.314;2023-04-08T04:04:20;5.20;99.90
20319;DHT22;10317;47.254;11.314;2023-04-08T04:06:46;5.30;99.90
20319;DHT22;10317;47.254;11.314;2023-04-08T04:09:12;5.20;99.90
20319;DHT22;10317;47.254;11.314;2023-04-08T04:11:39;5.20;99.90
20319;DHT22;10317;47.254;11.314;2023-04-08T04:14:05;5.10;99.90
20319;DHT22;10317;47.254;11.314;2023-04-08T04:16:30;5.10;99.90
20319;DHT22;10317;47.254;11.314;2023-04-08T04:18:56;5.20;99.90
20319;DHT22;10317;47.254;11.314;2023-04-08T04:21:22;5.20;99.90
20319;DHT22;10317;47.254;11.314;2023-04-08T04:23:47;5.20;99.90
20319;DHT22;10317;47.254;11.314;2023-04-08T04:26:13;5.20;99.90
20319;DHT22;10317;47.254;11.314;2023-04-08T04:28:39;5.20;99.90
20319;DHT22;10317;47.254;11.314;2023-04-08T04:31:05;5.20;99.90
20319;DHT22;10317;47.254;11.314;2023-04-08T04:33:31;5.20;99.90
20319;DHT22;10317;47.254;11.314;2023-04-08T04:35:57;5.20;99.90
20319;DHT22;10317;47.254;11.314;2023-04-08T04:38:22;5.20;99.90
20319;DHT22;10317;47.254;11.314;2023-04-08T04:40:48;5.10;99.90
20319;DHT22;10317;47.254;11.314;2023-04-08T04:43:14;5.20;99.90
20319;DHT22;10317;47.254;11.314;2023-04-08T04:45:39;5.20;99.90
20319;DHT22;10317;47.254;11.314;2023-04-08T04:48:05;5.20;99.90
20319;DHT22;10317;47.254;11.314;2023-04-08T04:50:31;5.20;99.90
20319;DHT22;10317;47.254;11.314;2023-04-08T04:52:57;5.20;99.90
20319;DHT22;10317;47.254;11.314;2023-04-08T04:55:22;5.20;99.90
20319;DHT22;10317;47.254;11.314;2023-04-08T04:57:48;5.20;99.90
20319;DHT22;10317;47.254;11.314;2023-04-08T05:00:14;5.10;99.90
20319;DHT22;10317;47.254;11.314;2023-04-08T05:02:41;5.10;99.90
20319;DHT22;10317;47.254;11.314;2023-04-08T05:05:07;5.10;99.90
20319;DHT22;10317;47.254;11.314;2023-04-08T05:07:36;5.10;99.90
20319;DHT22;10317;47.254;11.314;2023-04-08T05:10:03;5.20;99.90
20319;DHT22;10317;47.254;11.314;2023-04-08T05:12:29;5.20;99.90
20319;DHT22;10317;47.254;11.314;2023-04-08T05:14:57;5.20;99.90
20319;DHT22;10317;47.254;11.314;2023-04-08T05:17:23;5.30;99.90
20319;DHT22;10317;47.254;11.314;2023-04-08T05:19:49;5.30;99.90
20319;DHT22;10317;47.254;11.314;2023-04-08T05:22:16;5.30;99.90
20319;DHT22;10317;47.254;11.314;2023-04-08T05:24:42;5.30;99.90
20319;DHT22;10317;47.254;11.314;2023-04-08T05:27:07;5.30;99.90
20319;DHT22;10317;47.254;11.314;2023-04-08T05:29:33;5.20;99.90
20319;DHT22;10317;47.254;11.314;2023-04-08T05:58:50;5.60;99.90
20319;DHT22;10317;47.254;11.314;2023-04-08T06:01:58;5.70;99.90
20319;DHT22;10317;47.254;11.314;2023-04-08T06:04:51;5.70;99.90
20319;DHT22;10317;47.254;11.314;2023-04-08T06:27:08;7.00;99.90
20319;DHT22;10317;47.254;11.314;2023-04-08T06:29:33;7.10;99.90
20319;DHT22;10317;47.254;11.314;2023-04-08T06:31:59;7.10;99.90
20319;DHT22;10317;47.254;11.314;2023-04-08T06:34:24;7.20;99.90
20319;DHT22;10317;47.254;11.314;2023-04-08T06:36:50;7.20;99.90
20319;DHT22;10317;47.254;11.314;2023-04-08T06:39:16;7.20;99.90
20319;DHT22;10317;47.254;11.314;2023-04-08T06:41:43;7.30;99.90
20319;DHT22;10317;47.254;11.314;2023-04-08T06:44:09;7.40;99.90
20319;DHT22;10317;47.254;11.314;2023-04-08T06:46:34;7.40;99.90
20319;DHT22;10317;47.254;11.314;2023-04-08T06:49:00;7.50;99.90
20319;DHT22;10317;47.254;11.314;2023-04-08T06:51:28;7.70;99.90
20319;DHT22;10317;47.254;11.314;2023-04-08T06:53:55;7.80;99.90
20319;DHT22;10317;47.254;11.314;2023-04-08T06:56:21;8.00;99.90
20319;DHT22;10317;47.254;11.314;2023-04-08T06:58:47;8.10;99.90
20319;DHT22;10317;47.254;11.314;2023-04-08T07:01:13;8.20;99.90
20319;DHT22;10317;47.254;11.314;2023-04-08T07:03:40;8.20;99.90
20319;DHT22;10317;47.254;11.314;2023-04-08T07:06:06;8.60;99.90
20319;DHT22;10317;47.254;11.314;2023-04-08T07:08:31;9.00;99.90
20319;DHT22;10317;47.254;11.314;2023-04-08T07:10:57;10.10;99.90
20319;DHT22;10317;47.254;11.314;2023-04-08T07:20:16;10.80;99.90
20319;DHT22;10317;47.254;11.314;2023-04-08T07:22:42;10.80;99.90
20319;DHT22;10317;47.254;11.314;2023-04-08T07:25:08;10.90;99.90
20319;DHT22;10317;47.254;11.314;2023-04-08T07:27:34;10.90;99.90
20319;DHT22;10317;47.254;11.314;2023-04-08T07:30:00;11.30;99.90
20319;DHT22;10317;47.254;11.314;2023-04-08T07:32:26;11.40;99.90
20319;DHT22;10317;47.254;11.314;2023-04-08T07:34:52;11.20;99.90
20319;DHT22;10317;47.254;11.314;2023-04-08T07:37:17;11.20;99.90
20319;DHT22;10317;47.254;11.314;2023-04-08T07:39:43;11.20;99.90
20319;DHT22;10317;47.254;11.314;2023-04-08T07:42:09;10.90;99.90
20319;DHT22;10317;47.254;11.314;2023-04-08T07:44:34;10.50;99.90
20319;DHT22;10317;47.254;11.314;2023-04-08T07:47:00;10.20;99.90
20319;DHT22;10317;47.254;11.314;2023-04-08T07:49:26;9.60;99.90
20319;DHT22;10317;47.254;11.314;2023-04-08T07:51:52;9.60;99.90
20319;DHT22;10317;47.254;11.314;2023-04-08T07:54:18;9.40;99.90
20319;DHT22;10317;47.254;11.314;2023-04-08T07:56:43;9.50;99.90
20319;DHT22;10317;47.254;11.314;2023-04-08T07:59:10;9.40;99.90
20319;DHT22;10317;47.254;11.314;2023-04-08T08:01:36;9.50;99.90
20319;DHT22;10317;47.254;11.314;2023-04-08T08:04:03;9.60;99.90
20319;DHT22;10317;47.254;11.314;2023-04-08T08:06:29;9.80;99.90
20319;DHT22;10317;47.254;11.314;2023-04-08T08:08:58;9.90;99.90
20319;DHT22;10317;47.254;11.314;2023-04-08T08:11:24;9.70;99.90
20319;DHT22;10317;47.254;11.314;2023-04-08T08:13:51;9.70;99.90
20319;DHT22;10317;47.254;11.314;2023-04-08T08:16:17;10.10;99.90
20319;DHT22;10317;47.254;11.314;2023-04-08T08:18:43;10.40;99.90
20319;DHT22;10317;47.254;11.314;2023-04-08T08:21:08;10.50;99.90
20319;DHT22;10317;47.254;11.314;2023-04-08T08:23:34;10.80;99.90
20319;DHT22;10317;47.254;11.314;2023-04-08T08:26:03;11.20;99.90
20319;DHT22;10317;47.254;11.314;2023-04-08T08:28:31;11.60;99.90
20319;DHT22;10317;47.254;11.314;2023-04-08T08:30:57;11.80;99.90
20319;DHT22;10317;47.254;11.314;2023-04-08T08:33:23;12.10;99.90
20319;DHT22;10317;47.254;11.314;2023-04-08T08:35:49;12.50;99.70
20319;DHT22;10317;47.254;11.314;2023-04-08T08:38:15;12.60;97.50
20319;DHT22;10317;47.254;11.314;2023-04-08T08:40:42;13.20;99.10
20319;DHT22;10317;47.254;11.314;2023-04-08T08:43:09;14.00;98.20
20319;DHT22;10317;47.254;11.314;2023-04-08T08:45:41;14.00;97.00
20319;DHT22;10317;47.254;11.314;2023-04-08T08:48:08;13.80;92.70
20319;DHT22;10317;47.254;11.314;2023-04-08T08:50:37;14.00;94.90
20319;DHT22;10317;47.254;11.314;2023-04-08T08:53:02;14.10;94.50
20319;DHT22;10317;47.254;11.314;2023-04-08T08:55:31;14.10;92.30
20319;DHT22;10317;47.254;11.314;2023-04-08T08:58:01;13.90;92.60
20319;DHT22;10317;47.254;11.314;2023-04-08T09:00:45;13.90;94.10
20319;DHT22;10317;47.254;11.314;2023-04-08T09:03:22;13.80;93.30
20319;DHT22;10317;47.254;11.314;2023-04-08T09:05:53;14.10;92.80
20319;DHT22;10317;47.254;11.314;2023-04-08T09:08:35;14.40;92.70
20319;DHT22;10317;47.254;11.314;2023-04-08T09:11:17;14.40;91.10
20319;DHT22;10317;47.254;11.314;2023-04-08T09:13:45;13.90;90.70
20319;DHT22;10317;47.254;11.314;2023-04-08T09:16:13;14.00;90.70
20319;DHT22;10317;47.254;11.314;2023-04-08T09:18:39;14.10;91.30
20319;DHT22;10317;47.254;11.314;2023-04-08T09:21:09;13.80;90.60
20319;DHT22;10317;47.254;11.314;2023-04-08T09:23:41;13.90;91.00
20319;DHT22;10317;47.254;11.314;2023-04-08T09:26:14;14.10;90.80
20319;DHT22;10317;47.254;11.314;2023-04-08T09:28:42;13.70;90.90
20319;DHT22;10317;47.254;11.314;2023-04-08T09:31:25;13.80;87.50
20319;DHT22;10317;47.254;11.314;2023-04-08T09:33:55;12.90;89.00
20319;DHT22;10317;47.254;11.314;2023-04-08T09:36:21;13.50;90.40
20319;DHT22;10317;47.254;11.314;2023-04-08T09:38:46;13.90;90.40
20319;DHT22;10317;47.254;11.314;2023-04-08T09:41:15;14.20;88.80
20319;DHT22;10317;47.254;11.314;2023-04-08T09:43:52;13.80;81.90
20319;DHT22;10317;47.254;11.314;2023-04-08T09:49:09;13.40;84.50
20319;DHT22;10317;47.254;11.314;2023-04-08T09:54:18;13.60;87.00
20319;DHT22;10317;47.254;11.314;2023-04-08T09:56:57;13.50;86.40
20319;DHT22;10317;47.254;11.314;2023-04-08T09:59:28;13.30;88.80
20319;DHT22;10317;47.254;11.314;2023-04-08T10:01:57;13.10;90.00
20319;DHT22;10317;47.254;11.314;2023-04-08T10:04:25;12.70;88.10
20319;DHT22;10317;47.254;11.314;2023-04-08T10:07:12;12.30;90.10
20319;DHT22;10317;47.254;11.314;2023-04-08T10:09:38;12.10;90.80
20319;DHT22;10317;47.254;11.314;2023-04-08T10:12:08;12.20;90.60
20319;DHT22;10317;47.254;11.314;2023-04-08T10:14:34;12.40;91.10
20319;DHT22;10317;47.254;11.314;2023-04-08T10:17:29;12.40;90.80
20319;DHT22;10317;47.254;11.314;2023-04-08T10:20:02;12.70;91.20
20319;DHT22;10317;47.254;11.314;2023-04-08T10:27:41;12.40;87.70
20319;DHT22;10317;47.254;11.314;2023-04-08T10:32:56;12.50;87.20
20319;DHT22;10317;47.254;11.314;2023-04-08T10:35:31;12.60;85.20
20319;DHT22;10317;47.254;11.314;2023-04-08T10:37:58;12.90;86.30
20319;DHT22;10317;47.254;11.314;2023-04-08T10:40:24;12.80;81.70
20319;DHT22;10317;47.254;11.314;2023-04-08T10:42:59;12.60;80.10
20319;DHT22;10317;47.254;11.314;2023-04-08T10:45:25;12.20;74.60
20319;DHT22;10317;47.254;11.314;2023-04-08T10:47:51;12.20;79.60
20319;DHT22;10317;47.254;11.314;2023-04-08T10:50:20;12.30;80.60
20319;DHT22;10317;47.254;11.314;2023-04-08T10:52:48;12.20;75.00
20319;DHT22;10317;47.254;11.314;2023-04-08T10:55:14;11.90;72.70
20319;DHT22;10317;47.254;11.314;2023-04-08T10:57:41;11.80;76.50
20319;DHT22;10317;47.254;11.314;2023-04-08T11:00:10;11.80;73.60
20319;DHT22;10317;47.254;11.314;2023-04-08T11:02:39;11.80;73.90
20319;DHT22;10317;47.254;11.314;2023-04-08T11:05:05;11.60;75.40
20319;DHT22;10317;47.254;11.314;2023-04-08T11:07:31;11.50;74.50
20319;DHT22;10317;47.254;11.314;2023-04-08T11:10:02;11.00;77.60
20319;DHT22;10317;47.254;11.314;2023-04-08T11:12:27;11.00;83.50
20319;DHT22;10317;47.254;11.314;2023-04-08T11:14:54;11.00;82.50
20319;DHT22;10317;47.254;11.314;2023-04-08T11:17:20;11.10;81.50
20319;DHT22;10317;47.254;11.314;2023-04-08T11:19:47;11.10;76.50
20319;DHT22;10317;47.254;11.314;2023-04-08T11:22:13;11.30;78.00
20319;DHT22;10317;47.254;11.314;2023-04-08T11:24:39;11.30;78.20
20319;DHT22;10317;47.254;11.314;2023-04-08T11:27:05;11.50;79.50
20319;DHT22;10317;47.254;11.314;2023-04-08T11:29:31;11.60;77.80
20319;DHT22;10317;47.254;11.314;2023-04-08T11:31:57;11.70;79.10
20319;DHT22;10317;47.254;11.314;2023-04-08T11:34:24;11.80;76.90
20319;DHT22;10317;47.254;11.314;2023-04-08T11:36:51;12.00;80.70
20319;DHT22;10317;47.254;11.314;2023-04-08T11:39:21;12.10;75.60
20319;DHT22;10317;47.254;11.314;2023-04-08T11:41:48;12.40;76.40
20319;DHT22;10317;47.254;11.314;2023-04-08T11:44:14;12.60;75.60
20319;DHT22;10317;47.254;11.314;2023-04-08T11:46:40;12.80;73.50
20319;DHT22;10317;47.254;11.314;2023-04-08T11:49:16;12.80;73.00
20319;DHT22;10317;47.254;11.314;2023-04-08T11:51:56;13.00;75.40
20319;DHT22;10317;47.254;11.314;2023-04-08T11:54:33;13.00;75.50
20319;DHT22;10317;47.254;11.314;2023-04-08T11:56:59;13.30;72.00
20319;DHT22;10317;47.254;11.314;2023-04-08T11:59:25;13.20;70.60
20319;DHT22;10317;47.254;11.314;2023-04-08T12:01:51;13.00;69.80
20319;DHT22;10317;47.254;11.314;2023-04-08T12:04:17;13.10;72.20
20319;DHT22;10317;47.254;11.314;2023-04-08T12:06:43;13.30;72.40
20319;DHT22;10317;47.254;11.314;2023-04-08T12:09:12;13.20;70.10
20319;DHT22;10317;47.254;11.314;2023-04-08T12:11:37;13.10;71.80
20319;DHT22;10317;47.254;11.314;2023-04-08T12:14:03;13.00;70.00
20319;DHT22;10317;47.254;11.314;2023-04-08T12:16:28;12.70;70.20
20319;DHT22;10317;47.254;11.314;2023-04-08T12:18:54;12.80;70.10
20319;DHT22;10317;47.254;11.314;2023-04-08T12:21:20;12.50;71.40
20319;DHT22;10317;47.254;11.314;2023-04-08T12:23:46;12.50;72.60
20319;DHT22;10317;47.254;11.314;2023-04-08T12:26:11;12.40;73.50
20319;DHT22;10317;47.254;11.314;2023-04-08T12:28:37;12.50;72.80
20319;DHT22;10317;47.254;11.314;2023-04-08T12:31:03;12.60;72.40
20319;DHT22;10317;47.254;11.314;2023-04-08T12:33:29;12.40;71.40
20319;DHT22;10317;47.254;11.314;2023-04-08T12:35:55;12.40;72.70
20319;DHT22;10317;47.254;11.314;2023-04-08T12:38:23;12.20;72.50
20319;DHT22;10317;47.254;11.314;2023-04-08T12:40:49;12.30;71.40
20319;DHT22;10317;47.254;11.314;2023-04-08T12:43:15;12.40;73.70
20319;DHT22;10317;47.254;11.314;2023-04-08T12:45:41;12.50;73.40
20319;DHT22;10317;47.254;11.314;2023-04-08T12:48:07;12.60;71.30
20319;DHT22;10317;47.254;11.314;2023-04-08T12:50:33;11.70;78.20
20319;DHT22;10317;47.254;11.314;2023-04-08T12:52:59;10.90;84.00
20319;DHT22;10317;47.254;11.314;2023-04-08T12:55:25;11.10;85.90
20319;DHT22;10317;47.254;11.314;2023-04-08T12:57:51;11.20;84.20
20319;DHT22;10317;47.254;11.314;2023-04-08T13:00:17;10.50;86.10
20319;DHT22;10317;47.254;11.314;2023-04-08T13:02:44;10.40;89.00
20319;DHT22;10317;47.254;11.314;2023-04-08T13:05:09;10.20;89.00
20319;DHT22;10317;47.254;11.314;2023-04-08T13:07:35;10.00;89.40
20319;DHT22;10317;47.254;11.314;2023-04-08T13:10:02;10.10;90.90
20319;DHT22;10317;47.254;11.314;2023-04-08T13:12:31;10.20;90.80
20319;DHT22;10317;47.254;11.314;2023-04-08T13:14:57;10.30;90.70
20319;DHT22;10317;47.254;11.314;2023-04-08T13:17:24;9.70;91.50
20319;DHT22;10317;47.254;11.314;2023-04-08T13:19:49;9.70;92.60
20319;DHT22;10317;47.254;11.314;2023-04-08T13:22:15;9.60;92.60
20319;DHT22;10317;47.254;11.314;2023-04-08T13:24:41;9.50;91.50
20319;DHT22;10317;47.254;11.314;2023-04-08T13:27:07;9.40;92.80
20319;DHT22;10317;47.254;11.314;2023-04-08T13:29:33;9.40;94.00
20319;DHT22;10317;47.254;11.314;2023-04-08T13:31:59;9.50;94.60
20319;DHT22;10317;47.254;11.314;2023-04-08T13:34:26;9.50;94.40
20319;DHT22;10317;47.254;11.314;2023-04-08T13:36:52;9.50;94.40
20319;DHT22;10317;47.254;11.314;2023-04-08T13:39:17;9.40;95.30
20319;DHT22;10317;47.254;11.314;2023-04-08T13:41:43;9.10;94.50
20319;DHT22;10317;47.254;11.314;2023-04-08T13:44:09;8.70;94.60
20319;DHT22;10317;47.254;11.314;2023-04-08T13:46:34;8.90;95.40
20319;DHT22;10317;47.254;11.314;2023-04-08T13:49:00;9.10;95.80
20319;DHT22;10317;47.254;11.314;2023-04-08T13:51:27;9.20;94.80
20319;DHT22;10317;47.254;11.314;2023-04-08T13:53:53;9.20;94.80
20319;DHT22;10317;47.254;11.314;2023-04-08T13:56:19;8.90;94.50
20319;DHT22;10317;47.254;11.314;2023-04-08T13:58:45;9.00;95.10
20319;DHT22;10317;47.254;11.314;2023-04-08T14:01:11;9.00;94.40
20319;DHT22;10317;47.254;11.314;2023-04-08T14:03:37;9.10;94.90
20319;DHT22;10317;47.254;11.314;2023-04-08T14:06:03;9.00;95.60
20319;DHT22;10317;47.254;11.314;2023-04-08T14:08:28;8.90;94.80
20319;DHT22;10317;47.254;11.314;2023-04-08T14:10:57;9.00;95.00
20319;DHT22;10317;47.254;11.314;2023-04-08T14:13:23;9.00;94.50
20319;DHT22;10317;47.254;11.314;2023-04-08T14:15:49;9.10;95.00
20319;DHT22;10317;47.254;11.314;2023-04-08T14:18:15;9.40;94.90
20319;DHT22;10317;47.254;11.314;2023-04-08T14:20:44;9.20;94.40
20319;DHT22;10317;47.254;11.314;2023-04-08T14:23:09;9.20;93.90
20319;DHT22;10317;47.254;11.314;2023-04-08T14:25:37;9.30;95.10
20319;DHT22;10317;47.254;11.314;2023-04-08T14:28:03;9.50;94.60
20319;DHT22;10317;47.254;11.314;2023-04-08T14:30:29;9.30;93.90
20319;DHT22;10317;47.254;11.314;2023-04-08T14:32:54;9.10;94.30
20319;DHT22;10317;47.254;11.314;2023-04-08T14:35:20;9.20;93.70
20319;DHT22;10317;47.254;11.314;2023-04-08T14:37:46;9.20;94.30
20319;DHT22;10317;47.254;11.314;2023-04-08T14:40:12;9.30;94.30
20319;DHT22;10317;47.254;11.314;2023-04-08T14:42:37;9.30;95.50
20319;DHT22;10317;47.254;11.314;2023-04-08T14:45:03;9.50;94.70
20319;DHT22;10317;47.254;11.314;2023-04-08T14:47:29;9.40;94.90
20319;DHT22;10317;47.254;11.314;2023-04-08T14:49:55;9.40;95.00
20319;DHT22;10317;47.254;11.314;2023-04-08T14:52:23;9.00;94.50
20319;DHT22;10317;47.254;11.314;2023-04-08T14:54:49;8.80;95.60
20319;DHT22;10317;47.254;11.314;2023-04-08T14:57:15;8.60;96.20
20319;DHT22;10317;47.254;11.314;2023-04-08T14:59:41;8.60;96.40
20319;DHT22;10317;47.254;11.314;2023-04-08T15:02:06;8.50;95.80
20319;DHT22;10317;47.254;11.314;2023-04-08T15:04:32;8.40;95.50
20319;DHT22;10317;47.254;11.314;2023-04-08T15:06:58;8.60;96.30
20319;DHT22;10317;47.254;11.314;2023-04-08T15:09:23;8.50;96.60
20319;DHT22;10317;47.254;11.314;2023-04-08T15:11:49;8.20;96.10
20319;DHT22;10317;47.254;11.314;2023-04-08T15:14:15;8.30;99.40
20319;DHT22;10317;47.254;11.314;2023-04-08T15:16:41;8.20;97.90
20319;DHT22;10317;47.254;11.314;2023-04-08T15:19:06;8.10;98.50
20319;DHT22;10317;47.254;11.314;2023-04-08T15:21:32;8.00;99.60
20319;DHT22;10317;47.254;11.314;2023-04-08T15:23:58;8.00;99.90
20319;DHT22;10317;47.254;11.314;2023-04-08T15:26:24;7.80;99.90
20319;DHT22;10317;47.254;11.314;2023-04-08T15:28:49;8.00;99.90
20319;DHT22;10317;47.254;11.314;2023-04-08T15:31:16;8.10;99.90
20319;DHT22;10317;47.254;11.314;2023-04-08T15:33:42;8.10;99.90
20319;DHT22;10317;47.254;11.314;2023-04-08T15:36:10;8.00;99.90
20319;DHT22;10317;47.254;11.314;2023-04-08T15:38:35;8.10;99.90
20319;DHT22;10317;47.254;11.314;2023-04-08T15:41:01;8.00;99.90
20319;DHT22;10317;47.254;11.314;2023-04-08T15:43:27;8.10;99.90
20319;DHT22;10317;47.254;11.314;2023-04-08T15:45:53;8.10;99.90
20319;DHT22;10317;47.254;11.314;2023-04-08T15:48:19;8.10;99.90
20319;DHT22;10317;47.254;11.314;2023-04-08T15:50:44;8.00;99.90
20319;DHT22;10317;47.254;11.314;2023-04-08T15:53:10;8.00;99.90
20319;DHT22;10317;47.254;11.314;2023-04-08T15:55:38;8.00;99.90
20319;DHT22;10317;47.254;11.314;2023-04-08T15:58:04;8.20;99.90
20319;DHT22;10317;47.254;11.314;2023-04-08T16:00:30;8.20;99.90
20319;DHT22;10317;47.254;11.314;2023-04-08T16:02:56;8.10;99.90
20319;DHT22;10317;47.254;11.314;2023-04-08T16:05:22;7.90;99.90
20319;DHT22;10317;47.254;11.314;2023-04-08T16:07:47;7.90;99.90
20319;DHT22;10317;47.254;11.314;2023-04-08T16:10:13;7.90;99.90
20319;DHT22;10317;47.254;11.314;2023-04-08T16:12:39;8.00;99.90
20319;DHT22;10317;47.254;11.314;2023-04-08T16:15:05;7.80;99.90
20319;DHT22;10317;47.254;11.314;2023-04-08T16:17:31;7.90;99.90
20319;DHT22;10317;47.254;11.314;2023-04-08T16:19:56;8.00;99.90
20319;DHT22;10317;47.254;11.314;2023-04-08T16:22:22;8.00;99.90
20319;DHT22;10317;47.254;11.314;2023-04-08T16:24:48;7.90;99.90
20319;DHT22;10317;47.254;11.314;2023-04-08T16:27:13;7.90;99.90
20319;DHT22;10317;47.254;11.314;2023-04-08T16:29:39;8.10;99.90
20319;DHT22;10317;47.254;11.314;2023-04-08T16:32:05;7.70;99.90
20319;DHT22;10317;47.254;11.314;2023-04-08T16:34:31;7.80;99.90
20319;DHT22;10317;47.254;11.314;2023-04-08T16:36:56;7.80;99.90
20319;DHT22;10317;47.254;11.314;2023-04-08T16:39:22;7.70;99.90